createdAt,value
2018-07-08T00:00:08.742Z,17.20
2018-07-08T00:05:04.708Z,17.00
2018-07-08T00:07:32.775Z,17.00
2018-07-08T00:10:00.920Z,16.90
2018-07-08T00:12:28.999Z,16.70
2018-07-08T00:14:57.075Z,16.70
2018-07-08T00:19:53.186Z,16.60
2018-07-08T00:22:21.247Z,16.60
2018-07-08T00:24:49.346Z,16.50
2018-07-08T00:27:17.425Z,16.40
2018-07-08T00:29:45.494Z,16.50
2018-07-08T00:32:13.566Z,16.30
2018-07-08T00:34:41.639Z,16.30
2018-07-08T00:37:09.726Z,16.30
2018-07-08T00:39:37.782Z,16.30
2018-07-08T00:42:05.911Z,16.20
2018-07-08T00:44:33.950Z,16.20
2018-07-08T00:47:02.014Z,16.20
2018-07-08T00:49:30.086Z,16.20
2018-07-08T00:51:58.190Z,16.10
2018-07-08T00:54:26.262Z,16.00
2018-07-08T00:56:54.318Z,16.00
2018-07-08T00:59:22.374Z,15.90
2018-07-08T01:01:50.778Z,15.90
2018-07-08T01:04:18.850Z,15.80
2018-07-08T01:06:46.918Z,15.80
2018-07-08T01:09:15.002Z,15.90
2018-07-08T01:11:43.082Z,15.90
2018-07-08T01:14:11.153Z,16.00
2018-07-08T01:16:39.228Z,16.00
2018-07-08T01:19:07.274Z,16.00
2018-07-08T01:21:35.335Z,16.10
2018-07-08T01:24:03.416Z,16.10
2018-07-08T01:26:31.470Z,16.10
2018-07-08T01:28:59.547Z,16.00
2018-07-08T01:31:27.629Z,15.90
2018-07-08T01:33:55.687Z,15.80
2018-07-08T01:36:23.754Z,15.60
2018-07-08T01:38:51.815Z,15.60
2018-07-08T01:41:19.887Z,15.50
2018-07-08T01:43:47.952Z,15.50
2018-07-08T01:46:16.020Z,15.50
2018-07-08T01:48:44.105Z,15.50
2018-07-08T01:53:40.030Z,15.40
2018-07-08T01:56:08.107Z,15.40
2018-07-08T02:01:04.058Z,15.40
2018-07-08T02:03:32.130Z,15.40
2018-07-08T02:08:28.098Z,15.40
2018-07-08T02:10:56.160Z,15.30
2018-07-08T02:13:24.688Z,15.30
2018-07-08T02:15:52.772Z,15.30
2018-07-08T02:18:20.840Z,15.30
2018-07-08T02:20:49.126Z,15.30
2018-07-08T02:23:17.230Z,15.30
2018-07-08T02:25:45.325Z,15.30
2018-07-08T02:28:13.699Z,15.30
2018-07-08T02:30:42.052Z,15.30
2018-07-08T02:33:10.129Z,15.20
2018-07-08T02:35:38.202Z,15.10
2018-07-08T02:38:06.275Z,15.20
2018-07-08T02:40:35.052Z,15.10
2018-07-08T02:43:03.129Z,15.10
2018-07-08T02:45:31.195Z,15.10
2018-07-08T02:47:59.578Z,15.00
2018-07-08T02:50:27.643Z,15.00
2018-07-08T02:52:55.719Z,15.00
2018-07-08T02:55:23.798Z,15.00
2018-07-08T02:57:51.870Z,14.90
2018-07-08T03:00:19.941Z,14.80
2018-07-08T03:02:48.011Z,14.70
2018-07-08T03:05:16.099Z,14.60
2018-07-08T03:07:44.486Z,14.50
2018-07-08T03:10:12.550Z,14.50
2018-07-08T03:12:40.607Z,14.50
2018-07-08T03:15:08.674Z,14.40
2018-07-08T03:17:36.747Z,14.30
2018-07-08T03:20:04.874Z,14.30
2018-07-08T03:22:32.923Z,14.20
2018-07-08T03:25:00.976Z,14.20
2018-07-08T03:27:29.143Z,14.20
2018-07-08T03:29:57.218Z,14.20
2018-07-08T03:32:25.630Z,14.10
2018-07-08T03:34:53.714Z,14.10
2018-07-08T03:37:23.510Z,14.00
2018-07-08T03:39:51.579Z,14.10
2018-07-08T03:42:19.718Z,13.90
2018-07-08T03:44:48.100Z,13.80
2018-07-08T03:47:16.270Z,13.80
2018-07-08T03:49:44.322Z,13.90
2018-07-08T03:52:12.378Z,13.80
2018-07-08T03:54:40.472Z,13.80
2018-07-08T03:57:08.557Z,13.80
2018-07-08T03:59:36.637Z,13.90
2018-07-08T04:02:04.702Z,13.90
2018-07-08T04:04:32.774Z,13.80
2018-07-08T04:07:00.843Z,13.80
2018-07-08T04:09:29.250Z,13.70
2018-07-08T04:11:57.311Z,13.80
2018-07-08T04:14:25.387Z,13.80
2018-07-08T04:16:53.457Z,13.80
2018-07-08T04:19:21.530Z,13.90
2018-07-08T04:21:49.612Z,13.90
2018-07-08T04:24:17.682Z,13.90
2018-07-08T04:26:45.747Z,13.90
2018-07-08T04:29:13.816Z,14.00
2018-07-08T04:31:41.894Z,14.00
2018-07-08T04:34:10.064Z,14.00
2018-07-08T04:36:38.135Z,14.00
2018-07-08T04:39:07.167Z,14.10
2018-07-08T04:41:35.241Z,14.20
2018-07-08T04:44:03.502Z,14.20
2018-07-08T04:46:31.973Z,14.30
2018-07-08T04:49:00.039Z,14.30
2018-07-08T04:51:28.121Z,14.40
2018-07-08T04:53:56.193Z,14.50
2018-07-08T04:56:24.485Z,14.50
2018-07-08T04:58:53.038Z,14.60
2018-07-08T05:01:21.162Z,14.70
2018-07-08T05:03:49.232Z,14.80
2018-07-08T05:06:17.290Z,14.90
2018-07-08T05:08:45.384Z,14.90
2018-07-08T05:11:13.714Z,15.00
2018-07-08T05:16:09.630Z,15.20
2018-07-08T05:18:37.678Z,15.20
2018-07-08T05:21:06.411Z,15.30
2018-07-08T05:23:34.726Z,15.40
2018-07-08T05:26:02.784Z,15.50
2018-07-08T05:28:30.863Z,15.50
2018-07-08T05:30:58.942Z,15.60
2018-07-08T05:33:27.013Z,15.70
2018-07-08T05:35:55.406Z,15.80
2018-07-08T05:38:23.483Z,15.90
2018-07-08T05:40:51.565Z,16.00
2018-07-08T05:43:19.634Z,16.10
2018-07-08T05:45:47.784Z,16.10
2018-07-08T05:48:16.172Z,16.20
2018-07-08T05:50:44.242Z,16.30
2018-07-08T05:53:12.314Z,16.40
2018-07-08T05:55:40.415Z,16.40
2018-07-08T05:58:08.476Z,16.60
2018-07-08T06:00:36.556Z,16.60
2018-07-08T06:03:04.848Z,16.70
2018-07-08T06:05:32.924Z,16.80
2018-07-08T06:08:01.035Z,16.80
2018-07-08T06:10:29.094Z,17.00
2018-07-08T06:12:57.459Z,17.00
2018-07-08T06:15:25.603Z,17.10
2018-07-08T06:17:53.603Z,17.20
2018-07-08T06:22:49.550Z,17.30
2018-07-08T06:25:17.918Z,17.40
2018-07-08T06:27:45.974Z,17.40
2018-07-08T06:30:14.050Z,17.50
2018-07-08T06:32:42.182Z,17.60
2018-07-08T06:35:10.262Z,17.70
2018-07-08T06:37:38.882Z,17.80
2018-07-08T06:40:06.959Z,17.80
2018-07-08T06:45:02.930Z,17.90
2018-07-08T06:47:30.982Z,18.00
2018-07-08T06:49:59.406Z,18.10
2018-07-08T06:52:27.472Z,18.30
2018-07-08T06:54:55.528Z,18.40
2018-07-08T06:57:23.626Z,18.50
2018-07-08T06:59:51.710Z,18.60
2018-07-08T07:02:20.135Z,18.70
2018-07-08T07:04:48.231Z,18.80
2018-07-08T07:07:16.301Z,18.90
2018-07-08T07:09:44.390Z,19.00
2018-07-08T07:12:12.538Z,19.10
2018-07-08T07:14:41.224Z,19.20
2018-07-08T07:17:09.282Z,19.30
2018-07-08T07:19:37.343Z,19.40
2018-07-08T07:22:05.738Z,19.50
2018-07-08T07:24:33.806Z,19.60
2018-07-08T07:27:02.182Z,19.70
2018-07-08T07:29:30.330Z,19.80
2018-07-08T07:31:58.426Z,19.90
2018-07-08T07:34:26.546Z,20.00
2018-07-08T07:36:55.498Z,20.00
2018-07-08T07:39:23.895Z,20.10
2018-07-08T07:41:51.963Z,20.20
2018-07-08T07:44:20.019Z,20.30
2018-07-08T07:46:48.175Z,20.40
2018-07-08T07:49:16.398Z,20.50
2018-07-08T07:51:44.535Z,20.50
2018-07-08T07:54:12.707Z,20.60
2018-07-08T07:56:40.924Z,20.70
2018-07-08T07:59:09.007Z,20.80
2018-07-08T08:01:37.088Z,20.90
2018-07-08T08:04:05.512Z,21.00
2018-07-08T08:06:33.780Z,21.00
2018-07-08T08:09:01.844Z,21.00
2018-07-08T08:11:29.928Z,21.00
2018-07-08T08:14:02.330Z,21.10
2018-07-08T08:16:30.825Z,21.10
2018-07-08T08:18:59.301Z,21.20
2018-07-08T08:21:27.378Z,21.30
2018-07-08T08:23:56.508Z,21.30
2018-07-08T08:26:24.607Z,21.40
2018-07-08T08:28:52.643Z,21.60
2018-07-08T08:31:20.706Z,21.60
2018-07-08T08:34:59.321Z,21.70
2018-07-08T08:37:28.767Z,21.80
2018-07-08T08:39:57.019Z,21.90
2018-07-08T08:42:25.125Z,22.00
2018-07-08T08:44:54.178Z,22.10
2018-07-08T08:47:22.914Z,22.30
2018-07-08T08:49:51.726Z,22.40
2018-07-08T08:52:19.874Z,22.50
2018-07-08T08:54:47.927Z,22.50
2018-07-08T08:57:16.002Z,22.50
2018-07-08T08:59:44.236Z,22.60
2018-07-08T09:02:12.486Z,22.70
2018-07-08T09:04:41.392Z,22.80
2018-07-08T09:07:10.864Z,22.90
2018-07-08T09:09:38.935Z,23.00
2018-07-08T09:12:07.546Z,23.10
2018-07-08T09:14:35.815Z,23.10
2018-07-08T09:17:03.889Z,23.20
2018-07-08T09:19:31.965Z,23.20
2018-07-08T09:22:00.122Z,23.30
2018-07-08T09:24:28.192Z,23.40
2018-07-08T09:27:00.732Z,23.40
2018-07-08T09:29:28.838Z,23.50
2018-07-08T09:31:56.994Z,23.70
2018-07-08T09:34:25.524Z,23.80
2018-07-08T09:36:53.571Z,23.80
2018-07-08T09:39:21.845Z,24.00
2018-07-08T09:41:49.866Z,24.10
2018-07-08T09:44:18.360Z,24.30
2018-07-08T09:46:47.547Z,24.30
2018-07-08T09:49:15.830Z,24.40
2018-07-08T09:51:44.355Z,24.60
2018-07-08T09:54:12.638Z,24.70
2018-07-08T09:56:40.785Z,24.80
2018-07-08T09:59:08.916Z,24.80
2018-07-08T10:01:44.208Z,24.90
2018-07-08T10:04:26.933Z,24.80
2018-07-08T10:06:55.666Z,24.80
2018-07-08T10:09:24.688Z,24.90
2018-07-08T10:11:53.215Z,25.10
2018-07-08T10:14:22.474Z,25.20
2018-07-08T10:16:50.568Z,25.00
2018-07-08T10:19:19.729Z,24.80
2018-07-08T10:21:47.825Z,24.90
2018-07-08T10:24:15.944Z,24.90
2018-07-08T10:26:44.036Z,25.10
2018-07-08T10:29:16.592Z,25.30
2018-07-08T10:31:49.413Z,25.50
2018-07-08T10:34:18.070Z,25.40
2018-07-08T10:36:46.270Z,25.60
2018-07-08T10:39:15.343Z,25.60
2018-07-08T10:41:43.503Z,25.60
2018-07-08T10:44:12.307Z,25.70
2018-07-08T10:46:40.828Z,25.70
2018-07-08T10:49:09.320Z,25.80
2018-07-08T10:51:37.562Z,25.90
2018-07-08T10:54:06.126Z,26.00
2018-07-08T10:56:36.409Z,26.10
2018-07-08T10:59:04.503Z,26.20
2018-07-08T11:01:32.579Z,26.20
2018-07-08T11:04:01.192Z,26.20
2018-07-08T11:06:29.251Z,26.20
2018-07-08T11:08:57.419Z,26.30
2018-07-08T11:11:25.571Z,26.30
2018-07-08T11:13:53.735Z,26.20
2018-07-08T11:16:21.872Z,26.40
2018-07-08T11:18:49.959Z,26.60
2018-07-08T11:21:18.042Z,26.60
2018-07-08T11:23:46.119Z,26.60
2018-07-08T11:26:14.218Z,26.70
2018-07-08T11:28:42.389Z,26.80
2018-07-08T11:31:10.787Z,26.80
2018-07-08T11:33:38.880Z,26.80
2018-07-08T11:36:07.457Z,26.70
2018-07-08T11:38:35.514Z,26.80
2018-07-08T11:41:03.583Z,26.90
2018-07-08T11:43:32.025Z,26.80
2018-07-08T11:46:00.095Z,26.90
2018-07-08T11:48:28.299Z,27.00
2018-07-08T11:50:56.453Z,27.10
2018-07-08T11:53:24.563Z,27.10
2018-07-08T11:58:21.407Z,27.00
2018-07-08T12:00:49.525Z,27.00
2018-07-08T12:03:17.648Z,27.00
2018-07-08T12:05:45.708Z,27.10
2018-07-08T12:08:13.780Z,27.20
2018-07-08T12:10:41.925Z,27.10
2018-07-08T12:13:10.026Z,27.10
2018-07-08T12:15:38.114Z,27.20
2018-07-08T12:18:07.308Z,27.10
2018-07-08T12:20:38.156Z,27.10
2018-07-08T12:23:07.036Z,27.20
2018-07-08T12:25:35.106Z,27.30
2018-07-08T12:28:03.206Z,27.40
2018-07-08T12:30:31.322Z,27.50
2018-07-08T12:32:59.427Z,27.50
2018-07-08T12:35:27.497Z,27.60
2018-07-08T12:37:55.581Z,27.50
2018-07-08T12:40:23.671Z,27.50
2018-07-08T12:42:51.739Z,27.40
2018-07-08T12:45:19.831Z,27.50
2018-07-08T12:47:47.897Z,27.50
2018-07-08T12:50:15.962Z,27.50
2018-07-08T12:52:44.071Z,27.40
2018-07-08T12:55:12.182Z,27.50
2018-07-08T12:57:40.563Z,27.60
2018-07-08T13:00:08.654Z,27.70
2018-07-08T13:02:36.763Z,27.70
2018-07-08T13:05:05.199Z,27.70
2018-07-08T13:07:33.259Z,27.70
2018-07-08T13:10:01.362Z,27.80
2018-07-08T13:12:29.456Z,27.70
2018-07-08T13:14:57.528Z,27.60
2018-07-08T13:17:25.614Z,27.60
2018-07-08T13:19:53.760Z,27.70
2018-07-08T13:22:21.818Z,27.70
2018-07-08T13:24:50.178Z,27.70
2018-07-08T13:27:18.378Z,27.70
2018-07-08T13:29:46.467Z,27.80
2018-07-08T13:32:14.578Z,27.90
2018-07-08T13:34:42.671Z,27.80
2018-07-08T13:37:11.043Z,27.90
2018-07-08T13:39:39.167Z,28.00
2018-07-08T13:42:07.230Z,27.90
2018-07-08T13:44:35.314Z,28.00
2018-07-08T13:47:03.402Z,27.90
2018-07-08T13:49:31.703Z,28.00
2018-07-08T13:51:59.878Z,28.00
2018-07-08T13:54:27.948Z,28.00
2018-07-08T13:56:56.007Z,28.00
2018-07-08T13:59:24.094Z,27.90
2018-07-08T14:01:52.482Z,28.00
2018-07-08T14:04:20.560Z,28.10
2018-07-08T14:06:48.638Z,28.20
2018-07-08T14:09:17.155Z,28.30
2018-07-08T14:16:41.031Z,28.40
2018-07-08T14:19:09.102Z,28.70
2018-07-08T14:21:37.174Z,28.70
2018-07-08T14:24:05.414Z,28.70
2018-07-08T14:26:33.961Z,28.70
2018-07-08T14:29:02.812Z,28.70
2018-07-08T14:31:30.917Z,28.90
2018-07-08T14:33:59.035Z,29.10
2018-07-08T14:36:27.162Z,29.10
2018-07-08T14:38:55.328Z,29.20
2018-07-08T14:41:23.397Z,29.20
2018-07-08T14:43:51.532Z,29.30
2018-07-08T14:48:47.799Z,29.60
2018-07-08T14:51:15.899Z,29.70
2018-07-08T14:53:44.098Z,29.70
2018-07-08T14:56:12.176Z,29.60
2018-07-08T14:58:40.302Z,29.60
2018-07-08T15:01:08.438Z,29.80
2018-07-08T15:03:36.665Z,29.80
2018-07-08T15:06:04.751Z,30.10
2018-07-08T15:08:32.926Z,30.50
2018-07-08T15:11:00.995Z,30.70
2018-07-08T15:13:29.102Z,30.70
2018-07-08T15:15:57.239Z,30.60
2018-07-08T15:18:25.250Z,30.70
2018-07-08T15:20:53.378Z,31.00
2018-07-08T15:25:49.405Z,31.20
2018-07-08T15:28:17.490Z,31.20
2018-07-08T15:30:45.554Z,31.00
2018-07-08T15:33:13.658Z,31.10
2018-07-08T15:35:42.239Z,31.30
2018-07-08T15:38:10.355Z,31.50
2018-07-08T15:40:39.378Z,31.60
2018-07-08T15:43:07.627Z,31.30
2018-07-08T15:45:36.218Z,31.30
2018-07-08T15:48:04.286Z,31.30
2018-07-08T15:53:00.227Z,31.70
2018-07-08T15:55:28.746Z,32.00
2018-07-08T15:57:56.829Z,32.10
2018-07-08T16:00:25.353Z,32.30
2018-07-08T16:02:53.963Z,32.50
2018-07-08T16:05:22.237Z,32.70
2018-07-08T16:07:50.662Z,32.90
2018-07-08T16:10:19.075Z,33.00
2018-07-08T16:12:47.145Z,33.20
2018-07-08T16:15:16.292Z,33.30
2018-07-08T16:17:44.368Z,33.50
2018-07-08T16:20:12.489Z,33.60
2018-07-08T16:22:40.557Z,34.00
2018-07-08T16:25:08.726Z,33.80
2018-07-08T16:27:37.227Z,33.90
2018-07-08T16:30:05.389Z,33.90
2018-07-08T16:32:34.055Z,34.00
2018-07-08T16:35:03.511Z,33.70
2018-07-08T16:37:31.685Z,33.60
2018-07-08T16:39:59.765Z,33.80
2018-07-08T16:42:27.832Z,33.60
2018-07-08T16:44:55.907Z,33.90
2018-07-08T16:47:23.981Z,33.90
2018-07-08T16:49:52.048Z,34.10
2018-07-08T16:52:20.394Z,34.50
2018-07-08T16:54:48.651Z,34.80
2018-07-08T16:57:16.722Z,34.90
2018-07-08T16:59:44.808Z,35.00
2018-07-08T17:02:12.951Z,35.40
2018-07-08T17:04:41.365Z,35.20
2018-07-08T17:07:09.529Z,33.60
2018-07-08T17:09:37.618Z,31.90
2018-07-08T17:12:06.420Z,30.50
2018-07-08T17:14:34.493Z,29.20
2018-07-08T17:17:02.559Z,28.30
2018-07-08T17:19:30.742Z,27.70
2018-07-08T17:21:58.833Z,27.20
2018-07-08T17:24:26.908Z,26.80
2018-07-08T17:26:54.994Z,26.60
2018-07-08T17:29:23.420Z,26.30
2018-07-08T17:31:52.458Z,26.10
2018-07-08T17:36:48.472Z,25.80
2018-07-08T17:39:16.574Z,25.60
2018-07-08T17:44:12.890Z,25.40
2018-07-08T17:46:41.011Z,25.30
2018-07-08T17:49:09.059Z,25.20
2018-07-08T17:51:37.330Z,25.00
2018-07-08T17:54:05.765Z,24.80
2018-07-08T17:56:33.883Z,24.70
2018-07-08T17:59:01.955Z,24.60
2018-07-08T18:01:30.013Z,24.50
2018-07-08T18:03:58.095Z,24.50
2018-07-08T18:06:26.468Z,24.30
2018-07-08T18:08:54.566Z,24.30
2018-07-08T18:11:22.649Z,24.20
2018-07-08T18:13:50.973Z,24.20
2018-07-08T18:16:19.654Z,24.10
2018-07-08T18:18:47.774Z,24.10
2018-07-08T18:23:43.917Z,24.00
2018-07-08T18:28:39.934Z,23.90
2018-07-08T18:31:08.271Z,23.90
2018-07-08T18:33:36.554Z,23.80
2018-07-08T18:36:04.650Z,23.80
2018-07-08T18:38:32.739Z,23.60
2018-07-08T18:41:00.796Z,23.60
2018-07-08T18:43:28.864Z,23.60
2018-07-08T18:45:56.953Z,23.60
2018-07-08T18:50:52.928Z,23.50
2018-07-08T18:53:21.048Z,23.40
2018-07-08T18:55:49.451Z,23.50
2018-07-08T18:58:17.575Z,23.40
2018-07-08T19:00:46.048Z,23.30
2018-07-08T19:03:14.125Z,23.30
2018-07-08T19:05:42.487Z,23.20
2018-07-08T19:08:10.819Z,23.20
2018-07-08T19:10:38.939Z,23.10
2018-07-08T19:13:07.254Z,23.10
2018-07-08T19:15:35.310Z,23.00
2018-07-08T19:18:03.462Z,23.00
2018-07-08T19:20:31.507Z,23.00
2018-07-08T19:22:59.689Z,22.90
2018-07-08T19:25:27.775Z,22.80
2018-07-08T19:27:55.846Z,22.70
2018-07-08T19:30:24.028Z,22.60
2018-07-08T19:32:52.162Z,22.60
2018-07-08T19:35:20.294Z,22.60
2018-07-08T19:37:48.440Z,22.50
2018-07-08T19:40:16.523Z,22.40
2018-07-08T19:44:14.113Z,22.30
2018-07-08T19:46:49.511Z,22.30
2018-07-08T19:49:18.221Z,22.10
2018-07-08T19:51:46.327Z,22.10
2018-07-08T19:54:14.399Z,22.10
2018-07-08T19:56:42.535Z,22.00
2018-07-08T19:59:10.656Z,21.90
2018-07-08T20:01:38.719Z,21.90
2018-07-08T20:04:06.906Z,21.80
2018-07-08T20:06:34.967Z,21.80
2018-07-08T20:09:03.195Z,21.80
2018-07-08T20:11:31.261Z,21.80
2018-07-08T20:13:59.375Z,21.80
2018-07-08T20:16:27.499Z,21.70
2018-07-08T20:18:55.515Z,21.60
2018-07-08T20:21:23.934Z,21.60
2018-07-08T20:23:52.090Z,21.60
2018-07-08T20:26:20.563Z,21.60
2018-07-08T20:28:48.848Z,21.50
2018-07-08T20:31:17.074Z,21.50
2018-07-08T20:33:45.306Z,21.40
2018-07-08T20:36:13.540Z,21.30
2018-07-08T20:38:41.686Z,21.20
2018-07-08T20:41:09.918Z,21.20
2018-07-08T20:43:38.110Z,21.20
2018-07-08T20:46:06.457Z,21.10
2018-07-08T20:48:34.739Z,21.10
2018-07-08T20:51:03.171Z,21.00
2018-07-08T20:53:31.263Z,21.00
2018-07-08T20:56:00.346Z,21.00
2018-07-08T20:58:28.727Z,20.90
2018-07-08T21:00:56.872Z,20.80
2018-07-08T21:03:25.145Z,20.70
2018-07-08T21:05:53.313Z,20.70
2018-07-08T21:08:21.409Z,20.60
2018-07-08T21:10:49.470Z,20.50
2018-07-08T21:13:17.743Z,20.50
2018-07-08T21:15:45.825Z,20.50
2018-07-08T21:18:14.025Z,20.40
2018-07-08T21:20:42.207Z,20.40
2018-07-08T21:23:10.363Z,20.50
2018-07-08T21:25:38.950Z,20.30
2018-07-08T21:28:07.022Z,20.30
2018-07-08T21:30:35.127Z,20.30
2018-07-08T21:33:03.682Z,20.20
2018-07-08T21:35:31.745Z,20.20
2018-07-08T21:38:00.372Z,20.20
2018-07-08T21:40:28.444Z,20.10
2018-07-08T21:42:56.650Z,20.10
2018-07-08T21:45:25.003Z,20.10
2018-07-08T21:47:53.116Z,20.10
2018-07-08T21:50:21.198Z,20.00
2018-07-08T21:52:49.418Z,20.00
2018-07-08T21:55:17.618Z,20.00
2018-07-08T21:57:45.838Z,20.00
2018-07-08T22:00:14.066Z,20.00
2018-07-08T22:02:43.747Z,19.90
2018-07-08T22:05:11.851Z,19.90
2018-07-08T22:08:18.354Z,19.90
2018-07-08T22:10:46.430Z,19.80
2018-07-08T22:13:14.486Z,19.70
2018-07-08T22:15:42.557Z,19.70
2018-07-08T22:18:10.690Z,19.60
2018-07-08T22:20:38.806Z,19.50
2018-07-08T22:23:06.867Z,19.40
2018-07-08T22:25:34.926Z,19.30
2018-07-08T22:28:03.034Z,19.20
2018-07-08T22:30:31.217Z,19.20
2018-07-08T22:32:59.321Z,19.20
2018-07-08T22:35:27.369Z,19.20
2018-07-08T22:37:55.458Z,19.00
2018-07-08T22:40:23.574Z,19.00
2018-07-08T22:42:51.784Z,19.00
2018-07-08T22:45:19.878Z,19.00
2018-07-08T22:47:47.967Z,18.90
2018-07-08T22:50:16.023Z,18.90
2018-07-08T22:52:44.111Z,18.90
2018-07-08T22:55:12.198Z,18.80
2018-07-08T22:57:40.875Z,18.70
2018-07-08T23:00:20.446Z,18.70
2018-07-08T23:02:51.699Z,18.70
2018-07-08T23:05:19.772Z,18.70
2018-07-08T23:07:48.606Z,18.70
2018-07-08T23:10:16.671Z,18.70
2018-07-08T23:12:44.834Z,18.70
2018-07-08T23:15:13.182Z,18.60
2018-07-08T23:17:44.857Z,18.60
2018-07-08T23:20:13.025Z,18.50
2018-07-08T23:22:52.643Z,18.40
2018-07-08T23:25:21.030Z,18.40
2018-07-08T23:27:49.221Z,18.40
2018-07-08T23:30:17.475Z,18.30
2018-07-08T23:32:45.550Z,18.30
2018-07-08T23:35:13.621Z,18.20
2018-07-08T23:37:42.107Z,18.20
2018-07-08T23:40:10.202Z,18.20
2018-07-08T23:42:38.458Z,18.20
2018-07-08T23:45:06.559Z,18.10
2018-07-08T23:47:34.723Z,18.10
2018-07-08T23:50:02.797Z,18.00
2018-07-08T23:52:30.926Z,18.00
2018-07-08T23:54:59.008Z,18.00
2018-07-08T23:57:27.098Z,17.90
2018-07-08T23:59:55.383Z,17.90
